Huvudsida
METAR-TAF:

METAR-TAF

Flygplatser :

Lissabon-Portelas flygplats

Lissabon, Portugal

latitud: 38-46N, longitud: 009-08W, höjd: 114 m

Aktuellt väderrapport

Denna rapport gjordes för 25 minuter sedan, klockan 20:30 UTC
Vind 8 kt från syd, varierande mellan ost/sydost och syd/sydväst
Temperatur 15°C
Fuktighet 82%
Tryck 1027 hPa
Sikt 10 km eller mer
Få moln på en höjd av 3300 ft
Spridda moln på en höjd av 4000 ft

METAR: LPPT 212030Z 18008KT 120V200 9999 FEW033 SCT040 15/12 Q1027

Tid: 20:55 (20:55 UTC)

Väderprognos

Denna rapport gjordes för 3 timmar och 55 minuter sedan, klockan 17:00 UTC
Prognos gäller från 21 kl. 18 UTC till 22 kl. 24 UTC
Vind 5 kt från syd/sydväst
Sikt 10 km eller mer
Inga moln under 1 500 m eller inga cumulonimbus
Blir
från 21 kl. 21 UTC till 21 kl. 24 UTC
Vind 5 kt från sydost

TAF: LPPT 211700Z 2118/2224 21005KT CAVOK BECMG 2121/2124 14005KT

Aktuella väderrapporter och prognoser från 4000 flygplatser (METAR- och TAF-rapporter).

De tillgängliga stationerna syns som gula och röda prickar på kartan.

För musen över prickarna för att se namnen på stationerna.

Klicka sedan för att få väderrapporter och prognoser.

För att ändra kartan: Klicka på de gröna knapparna med ett svart kors på för att zooma in; den gröna knappen med ett streck på för att zooma ut; eller på de gröna pilarna för angränsande kartor.


METAR-TAF: